Terminal Aerodrome Forecast
Issued by NWS

Home | Current Version | Previous Version | Text Only | Print | Product List | Glossary On
Versions: 1 2 3 4 5 6 7 8 9 10 11 12 13 14 15 16 17 18 19 20 21 22
000
FTUS46 KSTO 271700
TAFMHR
TAF
KMHR 271736Z 2718/2818 VRB04KT 5SM BR OVC120
     FM272000 16005KT 6SM BR VCSH SCT040 OVC080
     FM280200 VRB04KT P6SM BKN100
     FM280700 33004KT 4SM BR BKN150
     FM281500 33005KT 2SM BR BKN100=

USA.gov is the U.S. government's official web portal to all federal, state and local government web resources and services.